createdAt,value
2017-11-10T00:01:04.410Z,70.00
2017-11-10T00:03:31.872Z,70.00
2017-11-10T00:05:59.308Z,69.40
2017-11-10T00:08:26.779Z,69.40
2017-11-10T00:10:55.008Z,69.40
2017-11-10T00:13:22.466Z,69.40
2017-11-10T00:15:50.098Z,69.50
2017-11-10T00:18:17.574Z,69.40
2017-11-10T00:20:45.013Z,69.40
2017-11-10T00:23:13.224Z,70.40
2017-11-10T00:25:40.801Z,69.80
2017-11-10T00:28:08.257Z,70.30
2017-11-10T00:30:35.697Z,69.70
2017-11-10T00:33:03.168Z,69.80
2017-11-10T00:35:31.370Z,69.80
2017-11-10T00:37:58.805Z,69.80
2017-11-10T00:40:26.245Z,69.40
2017-11-10T00:42:53.677Z,69.40
2017-11-10T00:45:21.131Z,69.60
2017-11-10T00:47:48.573Z,70.00
2017-11-10T00:50:16.039Z,69.70
2017-11-10T00:52:43.467Z,69.70
2017-11-10T00:55:10.924Z,70.20
2017-11-10T00:57:38.350Z,70.30
2017-11-10T01:00:05.791Z,70.20
2017-11-10T01:02:33.290Z,70.40
2017-11-10T01:05:00.736Z,70.10
2017-11-10T01:07:28.190Z,70.20
2017-11-10T01:09:55.632Z,70.20
2017-11-10T01:12:23.070Z,70.10
2017-11-10T01:14:51.507Z,69.90
2017-11-10T01:17:18.979Z,70.20
2017-11-10T01:19:46.413Z,69.60
2017-11-10T01:22:16.658Z,69.70
2017-11-10T01:24:44.088Z,70.10
2017-11-10T01:27:12.302Z,70.80
2017-11-10T01:29:39.742Z,70.80
2017-11-10T01:32:07.189Z,70.70
2017-11-10T01:34:35.495Z,70.90
2017-11-10T01:37:03.733Z,71.00
2017-11-10T01:39:31.174Z,71.00
2017-11-10T01:41:58.635Z,70.90
2017-11-10T01:44:26.841Z,71.80
2017-11-10T01:46:54.282Z,71.20
2017-11-10T01:49:24.506Z,71.20
2017-11-10T01:51:51.974Z,71.40
2017-11-10T01:54:19.410Z,71.40
2017-11-10T01:56:46.853Z,71.50
2017-11-10T01:59:14.304Z,71.50
2017-11-10T02:01:41.754Z,71.50
2017-11-10T02:04:09.194Z,71.40
2017-11-10T02:06:36.625Z,71.30
2017-11-10T02:09:04.058Z,71.10
2017-11-10T02:11:31.504Z,71.10
2017-11-10T02:13:58.944Z,71.40
2017-11-10T02:16:26.384Z,70.90
2017-11-10T02:18:53.818Z,70.60
2017-11-10T02:21:21.265Z,70.40
2017-11-10T02:23:48.746Z,70.70
2017-11-10T02:26:16.955Z,70.80
2017-11-10T02:28:47.309Z,71.50
2017-11-10T02:31:14.753Z,70.90
2017-11-10T02:33:42.958Z,71.10
2017-11-10T02:36:10.410Z,71.00
2017-11-10T02:38:37.840Z,70.70
2017-11-10T02:41:05.275Z,70.30
2017-11-10T02:43:32.713Z,70.50
2017-11-10T02:46:00.149Z,70.50
2017-11-10T02:48:27.581Z,70.60
2017-11-10T02:50:55.790Z,70.40
2017-11-10T02:53:23.222Z,70.40
2017-11-10T02:55:50.681Z,70.20
2017-11-10T02:58:18.150Z,69.60
2017-11-10T03:00:45.693Z,69.70
2017-11-10T03:03:14.638Z,70.10
2017-11-10T03:05:42.073Z,70.10
2017-11-10T03:08:09.510Z,70.10
2017-11-10T03:10:36.958Z,69.20
2017-11-10T03:13:04.408Z,69.20
2017-11-10T03:15:31.893Z,69.10
2017-11-10T03:18:00.111Z,69.10
2017-11-10T03:20:28.318Z,69.10
2017-11-10T03:22:56.541Z,69.20
2017-11-10T03:25:23.998Z,69.20
2017-11-10T03:27:51.435Z,69.10
2017-11-10T03:30:18.867Z,69.10
2017-11-10T03:32:46.317Z,69.10
2017-11-10T03:35:13.777Z,68.90
2017-11-10T03:37:41.229Z,68.80
2017-11-10T03:40:08.670Z,68.40
2017-11-10T03:42:36.123Z,68.80
2017-11-10T03:45:03.567Z,68.80
2017-11-10T03:47:31.026Z,68.50
2017-11-10T03:49:58.566Z,68.00
2017-11-10T03:52:26.001Z,67.80
2017-11-10T03:54:53.440Z,68.10
2017-11-10T03:57:21.119Z,67.80
2017-11-10T03:59:49.345Z,67.80
2017-11-10T04:02:16.775Z,67.90
2017-11-10T04:04:44.246Z,68.30
2017-11-10T04:07:11.699Z,68.50
2017-11-10T04:09:39.223Z,69.00
2017-11-10T04:12:06.669Z,68.90
2017-11-10T04:14:34.111Z,68.90
2017-11-10T04:17:01.549Z,68.90
2017-11-10T04:19:28.989Z,68.80
2017-11-10T04:21:56.438Z,68.60
2017-11-10T04:24:23.877Z,68.90
2017-11-10T04:26:52.150Z,68.40
2017-11-10T04:29:19.601Z,68.50
2017-11-10T04:31:47.961Z,68.30
2017-11-10T04:34:15.400Z,68.90
2017-11-10T04:36:42.844Z,68.80
2017-11-10T04:39:10.290Z,68.30
2017-11-10T04:41:37.740Z,68.40
2017-11-10T04:44:05.168Z,68.30
2017-11-10T04:46:32.601Z,69.20
2017-11-10T04:49:00.066Z,68.70
2017-11-10T04:51:28.278Z,68.90
2017-11-10T04:53:55.732Z,69.00
2017-11-10T04:56:23.181Z,68.60
2017-11-10T04:58:50.638Z,68.90
2017-11-10T05:01:18.095Z,68.80
2017-11-10T05:03:46.346Z,68.90
2017-11-10T05:06:13.788Z,68.40
2017-11-10T05:08:41.230Z,68.40
2017-11-10T05:11:11.078Z,68.40
2017-11-10T05:13:38.527Z,68.40
2017-11-10T05:16:05.965Z,68.40
2017-11-10T05:18:33.406Z,68.60
2017-11-10T05:21:00.842Z,68.90
2017-11-10T05:23:28.309Z,69.50
2017-11-10T05:25:55.743Z,69.30
2017-11-10T05:28:23.185Z,69.20
2017-11-10T05:30:50.634Z,69.10
2017-11-10T05:33:18.090Z,69.00
2017-11-10T05:35:45.535Z,69.40
2017-11-10T05:38:12.994Z,69.60
2017-11-10T05:40:40.552Z,69.40
2017-11-10T05:43:07.988Z,69.30
2017-11-10T05:45:35.432Z,69.80
2017-11-10T05:48:02.879Z,69.80
2017-11-10T05:50:30.771Z,69.80
2017-11-10T05:52:58.206Z,69.70
2017-11-10T05:55:25.638Z,70.30
2017-11-10T05:57:53.078Z,70.70
2017-11-10T06:00:20.516Z,71.10
2017-11-10T06:02:48.077Z,71.00
2017-11-10T06:05:15.510Z,70.60
2017-11-10T06:07:42.949Z,70.60
2017-11-10T06:10:10.475Z,70.70
2017-11-10T06:12:38.013Z,70.50
2017-11-10T06:15:05.453Z,70.50
2017-11-10T06:17:32.925Z,70.30
2017-11-10T06:20:00.366Z,70.20
2017-11-10T06:22:27.916Z,70.20
2017-11-10T06:24:55.540Z,69.60
2017-11-10T06:27:22.981Z,69.50
2017-11-10T06:29:50.551Z,69.00
2017-11-10T06:32:18.833Z,68.80
2017-11-10T06:34:47.085Z,68.90
2017-11-10T06:37:14.529Z,68.90
2017-11-10T06:39:42.061Z,68.50
2017-11-10T06:42:09.507Z,68.50
2017-11-10T06:44:37.083Z,68.60
2017-11-10T06:47:05.332Z,67.90
2017-11-10T06:49:33.548Z,67.80
2017-11-10T06:52:01.026Z,67.90
2017-11-10T06:54:28.468Z,67.60
2017-11-10T06:56:55.911Z,67.10
2017-11-10T06:59:24.298Z,67.50
2017-11-10T07:01:52.513Z,66.60
2017-11-10T07:04:20.093Z,66.70
2017-11-10T07:06:48.317Z,66.90
2017-11-10T07:09:15.781Z,66.70
2017-11-10T07:11:43.226Z,66.60
2017-11-10T07:14:10.767Z,66.90
2017-11-10T07:16:38.296Z,66.80
2017-11-10T07:19:05.737Z,67.50
2017-11-10T07:21:33.257Z,67.30
2017-11-10T07:24:00.684Z,67.10
2017-11-10T07:26:28.259Z,66.60
2017-11-10T07:28:56.234Z,66.20
2017-11-10T07:31:23.794Z,66.00
2017-11-10T07:33:51.236Z,65.70
2017-11-10T07:36:18.681Z,65.70
2017-11-10T07:38:46.117Z,65.50
2017-11-10T07:41:13.548Z,65.10
2017-11-10T07:43:41.002Z,64.80
2017-11-10T07:46:08.437Z,64.50
2017-11-10T07:48:35.881Z,64.60
2017-11-10T07:51:03.342Z,64.50
2017-11-10T07:53:30.804Z,63.70
2017-11-10T07:55:58.277Z,63.60
2017-11-10T07:58:25.727Z,63.60
2017-11-10T08:00:53.496Z,62.60
2017-11-10T08:03:20.937Z,62.70
2017-11-10T08:05:48.392Z,62.20
2017-11-10T08:08:16.648Z,61.70
2017-11-10T08:10:44.193Z,61.60
2017-11-10T08:13:11.635Z,62.30
2017-11-10T08:15:39.073Z,61.70
2017-11-10T08:18:06.626Z,62.10
2017-11-10T08:20:34.060Z,61.70
2017-11-10T08:23:02.413Z,61.20
2017-11-10T08:25:29.854Z,61.50
2017-11-10T08:27:57.290Z,61.20
2017-11-10T08:30:24.765Z,60.60
2017-11-10T08:32:52.203Z,60.60
2017-11-10T08:35:20.502Z,60.10
2017-11-10T08:37:47.950Z,60.20
2017-11-10T08:40:16.170Z,60.50
2017-11-10T08:42:43.607Z,60.60
2017-11-10T08:45:11.050Z,59.60
2017-11-10T08:47:38.496Z,59.90
2017-11-10T08:50:06.039Z,59.10
2017-11-10T08:52:33.580Z,59.30
2017-11-10T08:55:01.063Z,58.60
2017-11-10T08:57:29.290Z,59.50
2017-11-10T08:59:56.738Z,59.50
2017-11-10T09:02:24.313Z,59.50
2017-11-10T09:04:52.646Z,58.30
2017-11-10T09:07:20.122Z,58.30
2017-11-10T09:09:48.426Z,58.00
2017-11-10T09:12:15.857Z,58.00
2017-11-10T09:14:43.301Z,57.80
2017-11-10T09:17:10.752Z,57.60
2017-11-10T09:19:38.204Z,57.70
2017-11-10T09:22:06.865Z,57.00
2017-11-10T09:24:35.170Z,57.00
2017-11-10T09:27:04.974Z,57.90
2017-11-10T09:29:34.730Z,58.00
2017-11-10T09:32:22.078Z,58.00
2017-11-10T09:35:05.157Z,58.00
2017-11-10T09:37:43.286Z,58.00
2017-11-10T09:40:17.137Z,57.40
2017-11-10T09:42:53.941Z,57.40
2017-11-10T09:48:24.743Z,57.20
2017-11-10T09:50:57.894Z,57.10
2017-11-10T09:56:31.978Z,55.60
2017-11-10T09:59:16.102Z,55.60
2017-11-10T10:01:43.619Z,56.10
2017-11-10T10:04:13.854Z,55.90
2017-11-10T10:06:47.061Z,55.40
2017-11-10T10:09:17.294Z,55.00
2017-11-10T10:11:50.454Z,54.50
2017-11-10T10:17:44.837Z,54.30
2017-11-10T10:23:17.698Z,54.50
2017-11-10T10:25:45.827Z,54.00
2017-11-10T10:28:13.278Z,54.70
2017-11-10T10:30:40.711Z,54.80
2017-11-10T10:33:08.153Z,53.40
2017-11-10T10:35:35.598Z,53.90
2017-11-10T10:38:03.044Z,53.90
2017-11-10T10:40:30.512Z,52.70
2017-11-10T10:42:57.949Z,51.90
2017-11-10T10:45:25.389Z,52.50
2017-11-10T10:47:52.826Z,52.90
2017-11-10T10:50:20.294Z,52.70
2017-11-10T10:52:47.732Z,52.60
2017-11-10T10:55:15.175Z,53.10
2017-11-10T10:57:42.716Z,54.20
2017-11-10T11:00:10.400Z,53.90
2017-11-10T11:02:37.838Z,53.90
2017-11-10T11:05:05.282Z,54.30
2017-11-10T11:07:32.717Z,54.40
2017-11-10T11:10:00.991Z,54.90
2017-11-10T11:12:29.201Z,54.50
2017-11-10T11:14:56.641Z,54.50
2017-11-10T11:17:24.077Z,54.60
2017-11-10T11:19:51.613Z,54.60
2017-11-10T11:22:19.080Z,54.80
2017-11-10T11:24:46.520Z,54.90
2017-11-10T11:27:15.067Z,54.90
2017-11-10T11:29:42.522Z,55.00
2017-11-10T11:32:09.979Z,54.50
2017-11-10T11:34:37.441Z,53.60
2017-11-10T11:37:04.881Z,53.20
2017-11-10T11:39:33.319Z,52.70
2017-11-10T11:42:00.846Z,53.30
2017-11-10T11:44:28.291Z,53.80
2017-11-10T11:46:55.773Z,54.00
2017-11-10T11:49:23.250Z,53.50
2017-11-10T11:51:51.483Z,53.70
2017-11-10T11:54:18.945Z,53.70
2017-11-10T11:56:47.160Z,54.20
2017-11-10T11:59:14.698Z,54.20
2017-11-10T12:01:42.127Z,53.70
2017-11-10T12:04:09.553Z,54.20
2017-11-10T12:06:37.002Z,54.50
2017-11-10T12:09:04.481Z,54.50
2017-11-10T12:11:32.080Z,54.60
2017-11-10T12:13:59.513Z,55.80
2017-11-10T12:16:27.729Z,57.20
2017-11-10T12:18:55.166Z,57.10
2017-11-10T12:21:22.611Z,57.90
2017-11-10T12:23:50.108Z,59.20
2017-11-10T12:26:17.562Z,58.80
2017-11-10T12:28:44.992Z,59.40
2017-11-10T12:31:12.433Z,59.80
2017-11-10T12:33:39.864Z,60.50
2017-11-10T12:36:07.377Z,61.30
2017-11-10T12:38:35.588Z,60.90
2017-11-10T12:41:03.045Z,60.90
2017-11-10T12:43:30.494Z,62.00
2017-11-10T12:45:57.937Z,63.60
2017-11-10T12:48:25.376Z,62.90
2017-11-10T12:50:52.810Z,62.30
2017-11-10T12:53:20.306Z,63.60
2017-11-10T12:55:47.745Z,63.10
2017-11-10T12:58:15.296Z,63.00
2017-11-10T13:00:42.745Z,63.20
2017-11-10T13:03:10.320Z,63.90
2017-11-10T13:05:37.793Z,65.00
2017-11-10T13:08:07.938Z,64.90
2017-11-10T13:10:35.379Z,64.80
2017-11-10T13:13:02.852Z,66.40
2017-11-10T13:15:30.290Z,65.50
2017-11-10T13:17:57.725Z,67.30
2017-11-10T13:20:26.261Z,66.50
2017-11-10T13:22:53.706Z,67.20
2017-11-10T13:25:21.145Z,67.90
2017-11-10T13:27:49.353Z,68.20
2017-11-10T13:30:16.833Z,68.20
2017-11-10T13:32:45.288Z,70.30
2017-11-10T13:35:12.730Z,70.30
2017-11-10T13:37:41.269Z,69.60
2017-11-10T13:40:08.713Z,70.20
2017-11-10T13:42:36.196Z,69.80
2017-11-10T13:45:03.759Z,70.00
2017-11-10T13:47:32.578Z,71.60
2017-11-10T13:50:00.245Z,71.60
2017-11-10T13:52:27.684Z,70.30
2017-11-10T13:54:55.125Z,71.30
2017-11-10T13:57:22.862Z,70.90
2017-11-10T13:59:50.378Z,71.90
2017-11-10T14:02:18.730Z,70.30
2017-11-10T14:04:46.172Z,71.50
2017-11-10T14:07:13.659Z,72.10
2017-11-10T14:09:41.114Z,71.60
2017-11-10T14:12:09.573Z,71.80
2017-11-10T14:14:37.019Z,72.60
2017-11-10T14:17:04.461Z,72.20
2017-11-10T14:19:31.897Z,72.70
2017-11-10T14:22:00.117Z,73.30
2017-11-10T14:24:27.584Z,72.80
2017-11-10T14:26:55.013Z,71.40
2017-11-10T14:29:22.448Z,72.20
2017-11-10T14:31:49.897Z,71.90
2017-11-10T14:34:17.332Z,71.90
2017-11-10T14:36:44.841Z,72.90
2017-11-10T14:39:12.285Z,71.90
2017-11-10T14:41:39.894Z,72.70
2017-11-10T14:44:07.382Z,73.40
2017-11-10T14:46:34.829Z,72.80
2017-11-10T14:49:03.034Z,73.50
2017-11-10T14:51:30.566Z,73.50
2017-11-10T14:53:58.165Z,72.80
2017-11-10T14:56:25.628Z,72.60
2017-11-10T14:58:53.824Z,74.30
2017-11-10T15:01:21.262Z,74.30
2017-11-10T15:03:48.696Z,72.10
2017-11-10T15:06:16.187Z,72.90
2017-11-10T15:08:43.627Z,72.20
2017-11-10T15:11:11.070Z,72.40
2017-11-10T15:13:38.516Z,72.20
2017-11-10T15:16:06.009Z,72.10
2017-11-10T15:18:33.457Z,72.90
2017-11-10T15:21:00.893Z,71.50
2017-11-10T15:23:28.584Z,72.10
2017-11-10T15:25:56.022Z,71.90
2017-11-10T15:28:23.530Z,71.20
2017-11-10T15:30:50.963Z,72.10
2017-11-10T15:33:18.405Z,71.10
2017-11-10T15:35:45.840Z,71.40
2017-11-10T15:38:19.827Z,71.80
2017-11-10T15:40:48.026Z,71.10
2017-11-10T15:43:15.514Z,71.20
2017-11-10T15:45:42.955Z,71.80
2017-11-10T15:48:10.414Z,70.90
2017-11-10T15:50:38.679Z,70.30
2017-11-10T15:53:07.009Z,69.80
2017-11-10T15:55:34.470Z,69.80
2017-11-10T15:58:01.899Z,69.80
2017-11-10T16:00:29.340Z,70.50
2017-11-10T16:02:56.829Z,71.10
2017-11-10T16:05:24.269Z,71.40
2017-11-10T16:07:51.717Z,71.00
2017-11-10T16:10:19.195Z,71.30
2017-11-10T16:12:46.637Z,71.90
2017-11-10T16:15:14.073Z,70.70
2017-11-10T16:17:41.515Z,71.20
2017-11-10T16:20:08.991Z,71.90
2017-11-10T16:22:46.585Z,72.80
2017-11-10T16:25:14.790Z,71.20
2017-11-10T16:27:42.292Z,71.20
2017-11-10T16:30:10.529Z,71.10
2017-11-10T16:32:38.071Z,71.20
2017-11-10T16:35:05.506Z,70.90
2017-11-10T16:37:32.951Z,71.30
2017-11-10T16:40:00.389Z,70.90
2017-11-10T16:42:27.838Z,70.80
2017-11-10T16:44:55.281Z,72.20
2017-11-10T16:47:22.713Z,71.80
2017-11-10T16:49:50.206Z,72.60
2017-11-10T16:52:18.402Z,72.70
2017-11-10T16:54:45.841Z,72.70
2017-11-10T16:57:13.289Z,73.30
2017-11-10T16:59:40.924Z,73.50
2017-11-10T17:02:08.353Z,74.30
2017-11-10T17:04:35.812Z,74.30
2017-11-10T17:07:03.241Z,75.00
2017-11-10T17:09:30.684Z,75.80
2017-11-10T17:11:58.116Z,75.70
2017-11-10T17:14:25.575Z,76.30
2017-11-10T17:16:53.010Z,76.40
2017-11-10T17:19:20.453Z,76.70
2017-11-10T17:21:47.889Z,76.90
2017-11-10T17:24:15.370Z,77.60
2017-11-10T17:26:42.793Z,77.20
2017-11-10T17:29:10.229Z,76.70
2017-11-10T17:31:37.667Z,76.20
2017-11-10T17:34:05.910Z,76.80
2017-11-10T17:36:33.358Z,76.90
2017-11-10T17:39:00.780Z,76.50
2017-11-10T17:41:28.221Z,76.20
2017-11-10T17:43:55.672Z,76.20
2017-11-10T17:46:23.103Z,74.90
2017-11-10T17:48:51.326Z,75.60
2017-11-10T17:51:18.783Z,75.60
2017-11-10T17:53:46.230Z,74.70
2017-11-10T17:56:13.686Z,74.80
2017-11-10T17:58:41.120Z,74.40
2017-11-10T18:01:08.576Z,73.90
2017-11-10T18:03:36.052Z,74.60
2017-11-10T18:06:04.249Z,73.80
2017-11-10T18:08:31.724Z,73.80
2017-11-10T18:10:59.225Z,74.80
2017-11-10T18:13:26.664Z,74.30
2017-11-10T18:15:54.105Z,75.30
2017-11-10T18:18:21.541Z,74.50
2017-11-10T18:20:49.001Z,74.40
2017-11-10T18:23:16.421Z,74.50
2017-11-10T18:25:43.930Z,74.40
2017-11-10T18:28:11.357Z,74.40
2017-11-10T18:30:38.806Z,74.20
2017-11-10T18:33:06.305Z,73.80
2017-11-10T18:35:34.551Z,74.00
2017-11-10T18:38:02.747Z,74.20
2017-11-10T18:40:30.213Z,74.20
2017-11-10T18:42:57.670Z,74.40
2017-11-10T18:45:25.094Z,74.60
2017-11-10T18:47:52.548Z,73.90
2017-11-10T18:50:20.886Z,74.50
2017-11-10T18:52:48.322Z,75.10
2017-11-10T18:55:16.617Z,74.80
2017-11-10T18:57:44.057Z,73.80
2017-11-10T19:00:11.491Z,73.80
2017-11-10T19:02:38.954Z,73.40
2017-11-10T19:05:07.220Z,73.70
2017-11-10T19:07:34.663Z,73.70
2017-11-10T19:10:02.104Z,74.20
2017-11-10T19:12:29.546Z,73.60
2017-11-10T19:14:56.997Z,73.70
2017-11-10T19:17:25.231Z,74.20
2017-11-10T19:19:52.735Z,74.20
2017-11-10T19:22:20.169Z,74.60
2017-11-10T19:24:47.685Z,74.00
2017-11-10T19:27:15.131Z,73.40
2017-11-10T19:29:42.636Z,73.60
2017-11-10T19:32:10.110Z,73.60
2017-11-10T19:34:37.589Z,72.70
2017-11-10T19:37:05.046Z,73.30
2017-11-10T19:39:33.403Z,74.40
2017-11-10T19:42:00.846Z,74.40
2017-11-10T19:44:28.285Z,74.50
2017-11-10T19:46:55.818Z,75.40
2017-11-10T19:49:24.015Z,76.20
2017-11-10T19:51:51.608Z,76.20
2017-11-10T19:54:19.044Z,76.80
2017-11-10T19:56:47.159Z,76.80
2017-11-10T19:59:14.629Z,76.80
2017-11-10T20:01:42.097Z,76.60
2017-11-10T20:04:10.310Z,76.80
2017-11-10T20:06:37.763Z,76.80
2017-11-10T20:09:05.241Z,77.80
2017-11-10T20:11:32.805Z,77.10
2017-11-10T20:14:01.010Z,77.10
2017-11-10T20:16:29.245Z,77.10
2017-11-10T20:18:57.388Z,77.10
2017-11-10T20:21:24.837Z,76.90
2017-11-10T20:23:52.345Z,77.00
2017-11-10T20:26:19.911Z,77.00
2017-11-10T20:28:47.357Z,77.60
2017-11-10T20:31:15.560Z,76.80
2017-11-10T20:33:43.008Z,76.90
2017-11-10T20:36:10.467Z,76.90
2017-11-10T20:38:37.961Z,76.90
2017-11-10T20:41:05.467Z,77.20
2017-11-10T20:43:32.970Z,77.20
2017-11-10T20:46:00.450Z,77.50
2017-11-10T20:48:27.897Z,77.30
2017-11-10T20:50:55.341Z,77.40
2017-11-10T20:53:23.280Z,77.50
2017-11-10T20:55:50.715Z,76.90
2017-11-10T20:58:18.153Z,76.90
2017-11-10T21:00:46.453Z,77.00
2017-11-10T21:03:14.689Z,76.30
2017-11-10T21:05:42.130Z,76.20
2017-11-10T21:08:09.569Z,76.20
2017-11-10T21:10:37.374Z,76.10
2017-11-10T21:13:04.843Z,75.90
2017-11-10T21:15:32.285Z,76.00
2017-11-10T21:17:59.732Z,75.90
2017-11-10T21:20:27.183Z,76.00
2017-11-10T21:22:54.630Z,75.50
2017-11-10T21:25:23.063Z,75.70
2017-11-10T21:27:50.502Z,75.60
2017-11-10T21:30:17.961Z,75.00
2017-11-10T21:32:45.432Z,75.30
2017-11-10T21:35:12.892Z,74.90
2017-11-10T21:37:40.350Z,74.70
2017-11-10T21:40:08.810Z,74.90
2017-11-10T21:42:37.018Z,74.50
2017-11-10T21:45:04.484Z,74.50
2017-11-10T21:47:31.933Z,74.80
2017-11-10T21:49:59.373Z,75.40
2017-11-10T21:52:26.814Z,76.10
2017-11-10T21:54:54.257Z,77.70
2017-11-10T21:57:21.793Z,78.70
2017-11-10T21:59:49.230Z,78.30
2017-11-10T22:02:16.662Z,78.40
2017-11-10T22:04:44.152Z,79.00
2017-11-10T22:07:11.574Z,78.50
2017-11-10T22:09:39.045Z,79.10
2017-11-10T22:12:07.343Z,79.10
2017-11-10T22:14:34.777Z,79.60
2017-11-10T22:17:02.216Z,79.50
2017-11-10T22:19:29.649Z,79.80
2017-11-10T22:21:57.111Z,80.70
2017-11-10T22:24:24.544Z,80.90
2017-11-10T22:26:51.987Z,80.50
2017-11-10T22:29:19.421Z,80.90
2017-11-10T22:31:46.854Z,81.40
2017-11-10T22:34:15.058Z,81.40
2017-11-10T22:36:42.574Z,81.40
2017-11-10T22:39:10.342Z,81.90
2017-11-10T22:41:37.773Z,81.50
2017-11-10T22:44:05.218Z,82.00
2017-11-10T22:46:32.657Z,81.80
2017-11-10T22:49:00.109Z,81.50
2017-11-10T22:51:27.566Z,81.60
2017-11-10T22:53:55.005Z,82.10
2017-11-10T22:56:22.447Z,81.50
2017-11-10T22:58:49.953Z,82.70
2017-11-10T23:01:18.136Z,82.70
2017-11-10T23:03:45.577Z,82.60
2017-11-10T23:06:13.021Z,82.00
2017-11-10T23:08:41.362Z,81.30
2017-11-10T23:11:08.844Z,81.40
2017-11-10T23:13:36.276Z,81.40
2017-11-10T23:16:03.723Z,81.80
2017-11-10T23:18:31.160Z,81.80
2017-11-10T23:20:58.637Z,81.40
2017-11-10T23:23:26.086Z,81.20
2017-11-10T23:25:53.530Z,81.70
2017-11-10T23:28:21.040Z,80.90
2017-11-10T23:30:48.469Z,81.60
2017-11-10T23:33:15.908Z,81.40
2017-11-10T23:35:43.346Z,81.60
2017-11-10T23:38:10.833Z,81.00
2017-11-10T23:40:38.387Z,80.60
2017-11-10T23:43:05.840Z,80.40
2017-11-10T23:45:33.265Z,80.30
2017-11-10T23:48:00.709Z,80.50
2017-11-10T23:50:28.911Z,80.40
2017-11-10T23:52:56.351Z,80.50
2017-11-10T23:55:23.858Z,80.90
2017-11-10T23:57:51.293Z,80.00
